Lexington, Michigan
Current Conditions -  °F | °C
As of 6:00 AM on Wednesday 22 Oct 2014 (Local Time) from CYZR Reporting Station
Overcast Overcast  
Wind Chill:   Ceiling: 1700
Heat Index:   Visibility: 9mi
Dew Point:   Wind: 12mph
Humidity: 81%   Direction: 20°NNE
Pressure: 30.25"   Gusts: 17mph
Location:  43.27°N, 82.53°W
Report Text: CYZR 221000Z AUTO 02010G15KT 9SM OVC017 07/04 A3025 RMK SLP247
Loading
Personal Weather Stations






























Interactive Weather Map
Tropical Storm Tracking
New forecast layout! Learn more

10-Day Weather Forecast

Advertisements
Track Severe Weather on mobile